Time;durP1;ratioP1;P1;durP2;ratioP2;P2;SDS_P1;SDS_P2;PMS_P1;PMS_P2;Temp;Humidity;BMP_temperature;BMP_pressure;BME280_temperature;BME280_humidity;BME280_pressure;Samples;Min_cycle;Max_cycle;Signal;HPM_P1;HPM_P2
2022/01/08 00:00:36;;;;;;;2.00;1.33;;;22.70;55.70;;;;;;4936641;29;20210;-70
2022/01/08 00:03:02;;;;;;;2.35;1.50;;;22.80;55.80;;;;;;4920835;29;20600;-70
2022/01/08 00:05:28;;;;;;;1.92;1.58;;;22.80;55.80;;;;;;4936422;29;20224;-70
2022/01/08 00:07:54;;;;;;;1.80;1.38;;;22.70;55.60;;;;;;4952451;29;20230;-69
2022/01/08 00:10:21;;;;;;;1.48;1.17;;;22.70;55.70;;;;;;4936842;29;20194;-69
2022/01/08 00:12:49;;;;;;;1.83;1.30;;;22.70;55.60;;;;;;4936681;29;20226;-69
2022/01/08 00:15:16;;;;;;;2.75;1.15;;;22.80;55.70;;;;;;4936108;29;20194;-69
2022/01/08 00:17:42;;;;;;;1.90;1.30;;;22.80;55.70;;;;;;4952554;29;20233;-69
2022/01/08 00:20:09;;;;;;;1.50;1.23;;;22.80;55.60;;;;;;4936565;29;20210;-70
2022/01/08 00:22:35;;;;;;;1.73;1.27;;;22.80;55.60;;;;;;4952435;29;20190;-69
2022/01/08 00:25:02;;;;;;;1.48;1.27;;;22.80;55.70;;;;;;4953241;29;20189;-69
2022/01/08 00:27:28;;;;;;;1.52;1.42;;;22.80;55.70;;;;;;4953445;29;20337;-69
2022/01/08 00:29:54;;;;;;;1.70;1.45;;;22.80;55.60;;;;;;4936371;29;20265;-70
2022/01/08 00:32:20;;;;;;;2.08;1.05;;;22.80;55.70;;;;;;4936289;29;20580;-69
2022/01/08 00:34:46;;;;;;;1.33;1.20;;;22.80;55.70;;;;;;4935868;29;20306;-69
2022/01/08 00:37:12;;;;;;;1.23;1.10;;;22.80;55.70;;;;;;4936193;29;20305;-70
2022/01/08 00:39:39;;;;;;;1.50;1.40;;;22.80;55.80;;;;;;4936170;29;20218;-70
2022/01/08 00:42:05;;;;;;;3.17;1.67;;;22.80;55.60;;;;;;4936360;29;20197;-69
2022/01/08 00:44:31;;;;;;;1.90;1.23;;;22.80;55.60;;;;;;4919957;29;20182;-69
2022/01/08 00:46:57;;;;;;;1.60;1.50;;;22.80;55.60;;;;;;4935961;29;20187;-69
2022/01/08 00:49:25;;;;;;;1.60;1.35;;;22.80;55.60;;;;;;4936101;29;20190;-69
2022/01/08 00:51:51;;;;;;;1.42;1.33;;;22.70;55.60;;;;;;4936105;29;20194;-69
2022/01/08 00:54:17;;;;;;;1.83;1.25;;;22.80;55.60;;;;;;4951898;29;20280;-69
2022/01/08 00:56:43;;;;;;;1.83;1.35;;;22.70;55.60;;;;;;4920298;29;20186;-70
2022/01/08 00:59:09;;;;;;;1.48;1.38;;;22.70;55.50;;;;;;4920140;29;20608;-69
2022/01/08 01:01:35;;;;;;;1.23;1.13;;;22.80;55.60;;;;;;4939332;29;20269;-70
2022/01/08 01:04:00;;;;;;;2.65;1.20;;;22.80;55.60;;;;;;4956763;29;20197;-69
2022/01/08 01:06:26;;;;;;;2.08;0.85;;;22.80;55.60;;;;;;4955399;29;20182;-69
2022/01/08 01:08:52;;;;;;;1.95;1.40;;;22.80;55.60;;;;;;4939837;29;20210;-69
2022/01/08 01:11:18;;;;;;;1.40;1.08;;;22.80;55.60;;;;;;4956896;29;20185;-69
2022/01/08 01:13:44;;;;;;;1.13;1.02;;;22.80;55.60;;;;;;4998496;23;20606;-70
2022/01/08 01:16:09;;;;;;;1.15;1.00;;;22.80;55.50;;;;;;4974144;28;20670;-69
2022/01/08 01:18:37;;;;;;;0.90;0.90;;;22.80;55.50;;;;;;4969708;28;20206;-70
2022/01/08 01:21:03;;;;;;;1.40;1.02;;;22.80;55.50;;;;;;4990345;28;20260;-70
2022/01/08 01:23:37;;;;;;;1.25;1.10;;;22.80;55.50;;;;;;4975871;28;20199;-70
2022/01/08 01:26:06;;;;;;;1.27;1.13;;;22.80;55.50;;;;;;4990430;28;20212;-70
2022/01/08 01:28:59;;;;;;;1.40;1.30;;;22.80;55.50;;;;;;4958395;28;20201;-70
2022/01/08 01:42:27;;;;;;;0.73;0.73;;;22.80;55.50;;;;;;4975723;28;20188;-71
2022/01/08 01:47:37;;;;;;;1.77;1.27;;;22.80;55.50;;;;;;4975201;28;20213;-71
2022/01/08 01:50:07;;;;;;;1.50;1.00;;;22.80;55.50;;;;;;4990548;28;20201;-71
2022/01/08 01:52:33;;;;;;;1.05;1.05;;;22.80;55.50;;;;;;4990685;28;20228;-71
2022/01/08 01:54:59;;;;;;;1.10;1.00;;;22.80;55.40;;;;;;4990044;28;20194;-71
2022/01/08 01:57:26;;;;;;;1.10;1.00;;;22.80;55.50;;;;;;4957831;28;20337;-71
2022/01/08 01:59:52;;;;;;;1.10;1.00;;;22.80;55.50;;;;;;4990275;28;20694;-71
2022/01/08 02:02:18;;;;;;;1.92;1.13;;;22.80;55.50;;;;;;4990490;28;20272;-71
2022/01/08 02:04:43;;;;;;;1.77;0.85;;;22.80;55.40;;;;;;4986218;28;20328;-71
2022/01/08 02:07:09;;;;;;;0.98;0.98;;;22.80;55.40;;;;;;4938778;29;20265;-71
2022/01/08 02:09:39;;;;;;;0.98;0.93;;;22.80;55.50;;;;;;4955104;29;20306;-70
2022/01/08 02:12:10;;;;;;;1.27;1.00;;;22.80;55.40;;;;;;4938154;29;20205;-70
2022/01/08 02:14:38;;;;;;;0.85;0.85;;;22.80;55.40;;;;;;4954277;29;20198;-71
2022/01/08 02:17:06;;;;;;;1.45;1.00;;;22.80;55.40;;;;;;4938606;29;20186;-71
2022/01/08 02:19:32;;;;;;;1.00;0.90;;;22.80;55.40;;;;;;4954513;29;20218;-71
2022/01/08 02:22:02;;;;;;;1.08;0.93;;;22.80;55.40;;;;;;4954818;29;20242;-71
2022/01/08 02:24:29;;;;;;;1.05;0.95;;;22.80;55.50;;;;;;4938422;29;20195;-72
2022/01/08 02:26:55;;;;;;;1.20;1.10;;;22.80;55.40;;;;;;4954252;28;20187;-71
2022/01/08 02:29:24;;;;;;;1.45;1.00;;;22.80;55.40;;;;;;4938490;29;20201;-71
2022/01/08 02:32:08;;;;;;;1.08;0.98;;;22.80;55.40;;;;;;4954246;29;20226;-72
2022/01/08 02:34:37;;;;;;;0.90;0.90;;;22.80;55.40;;;;;;4955070;28;20190;-71
2022/01/08 02:37:04;;;;;;;1.20;1.10;;;22.80;55.40;;;;;;4954018;29;20194;-71
2022/01/08 02:39:34;;;;;;;0.88;0.80;;;22.80;55.40;;;;;;4954564;29;20273;-72
2022/01/08 02:42:00;;;;;;;0.80;0.80;;;22.80;55.40;;;;;;4954091;29;20178;-71
2022/01/08 02:44:27;;;;;;;1.02;0.70;;;22.80;55.40;;;;;;4954123;29;20210;-71
2022/01/08 02:46:53;;;;;;;1.00;0.85;;;22.80;55.40;;;;;;4954337;28;20183;-71
2022/01/08 02:49:21;;;;;;;1.23;1.13;;;22.80;55.40;;;;;;4938172;29;20262;-71
2022/01/08 02:51:48;;;;;;;0.82;0.82;;;22.80;55.30;;;;;;4954005;29;20654;-71
2022/01/08 02:54:14;;;;;;;0.90;0.90;;;22.80;55.30;;;;;;4953894;29;20194;-71
2022/01/08 02:56:43;;;;;;;0.90;0.82;;;22.80;55.30;;;;;;4953621;29;20190;-71
2022/01/08 02:59:09;;;;;;;1.00;0.70;;;22.80;55.30;;;;;;4953737;28;20214;-72
2022/01/08 03:01:35;;;;;;;0.85;0.85;;;22.80;55.40;;;;;;4972841;28;20598;-72
2022/01/08 03:04:02;;;;;;;0.80;0.80;;;22.80;55.30;;;;;;4989361;28;20221;-71
2022/01/08 03:06:28;;;;;;;1.15;0.80;;;22.80;55.30;;;;;;4972325;28;20212;-71
2022/01/08 03:08:54;;;;;;;2.65;1.10;;;22.80;55.20;;;;;;4973330;28;20562;-71
2022/01/08 03:11:19;;;;;;;0.80;0.80;;;22.80;55.30;;;;;;4972021;28;20244;-71
2022/01/08 03:13:45;;;;;;;1.02;0.90;;;22.80;55.30;;;;;;4974092;28;20595;-70
2022/01/08 03:16:12;;;;;;;1.10;1.00;;;22.80;55.30;;;;;;4988745;28;20644;-71
2022/01/08 03:18:38;;;;;;;0.85;0.85;;;22.80;55.30;;;;;;4974140;28;20209;-71
2022/01/08 03:21:15;;;;;;;1.02;0.93;;;22.80;55.20;;;;;;4973035;28;20726;-70
2022/01/08 03:23:54;;;;;;;1.63;0.90;;;22.80;55.20;;;;;;4988311;28;20181;-71
2022/01/08 03:26:24;;;;;;;1.23;0.90;;;22.80;55.20;;;;;;4972267;28;20189;-71
2022/01/08 03:28:51;;;;;;;0.80;0.80;;;22.80;55.20;;;;;;4988646;28;20202;-71
2022/01/08 03:31:18;;;;;;;0.90;0.90;;;22.80;55.20;;;;;;4988587;28;20209;-71
2022/01/08 03:33:44;;;;;;;0.80;0.70;;;22.80;55.10;;;;;;4972219;28;20229;-71
2022/01/08 03:36:12;;;;;;;0.95;0.85;;;22.80;55.20;;;;;;4973217;28;20264;-71
2022/01/08 03:38:39;;;;;;;1.25;0.73;;;22.80;55.10;;;;;;4988671;28;20212;-71
2022/01/08 03:41:05;;;;;;;0.80;0.80;;;22.80;55.10;;;;;;4988326;28;20235;-71
2022/01/08 03:43:31;;;;;;;0.70;0.70;;;22.80;55.10;;;;;;4988501;28;20743;-71
2022/01/08 03:45:58;;;;;;;0.80;0.80;;;22.80;55.10;;;;;;4971715;28;20185;-71
2022/01/08 03:50:54;;;;;;;1.02;0.80;;;22.80;55.20;;;;;;4988266;28;20189;-71
2022/01/08 03:53:20;;;;;;;1.50;0.90;;;22.80;55.10;;;;;;4988376;28;20217;-72
2022/01/08 03:55:45;;;;;;;0.80;0.80;;;22.80;55.10;;;;;;4987904;28;20675;-71
2022/01/08 03:58:11;;;;;;;1.48;0.80;;;22.80;55.20;;;;;;4988195;28;20202;-71
2022/01/08 04:00:37;;;;;;;0.82;0.82;;;22.80;55.10;;;;;;4988093;28;20240;-71
2022/01/08 04:03:03;;;;;;;1.52;0.88;;;22.80;55.10;;;;;;4988187;28;20269;-71
2022/01/08 04:05:29;;;;;;;0.80;0.70;;;22.80;55.10;;;;;;4971557;28;20205;-71
2022/01/08 04:07:55;;;;;;;2.03;1.10;;;22.80;55.10;;;;;;4973113;28;20201;-71
2022/01/08 04:10:20;;;;;;;1.20;1.02;;;22.80;55.10;;;;;;4984458;28;20201;-72
2022/01/08 04:12:52;;;;;;;0.93;0.80;;;22.80;55.10;;;;;;4936389;29;20234;-71
2022/01/08 04:15:34;;;;;;;0.80;0.80;;;22.80;55.00;;;;;;4955013;28;20204;-71
2022/01/08 04:18:00;;;;;;;0.82;0.80;;;22.80;55.10;;;;;;4971702;28;20745;-71
2022/01/08 04:20:26;;;;;;;0.80;0.80;;;22.80;55.10;;;;;;4971666;28;20226;-71
2022/01/08 04:22:52;;;;;;;0.80;0.77;;;22.80;55.00;;;;;;4971680;28;20188;-71
2022/01/08 04:25:22;;;;;;;0.70;0.70;;;22.80;55.00;;;;;;4987395;28;20201;-71
2022/01/08 04:27:48;;;;;;;0.90;0.90;;;22.80;55.00;;;;;;4971485;28;20229;-71
2022/01/08 04:30:15;;;;;;;0.90;0.90;;;22.80;55.00;;;;;;4971757;28;20185;-71
2022/01/08 04:32:41;;;;;;;1.30;0.70;;;22.80;55.00;;;;;;4972639;28;20276;-71
2022/01/08 04:35:08;;;;;;;1.45;0.90;;;22.80;55.00;;;;;;4974012;28;20324;-71
2022/01/08 04:37:33;;;;;;;1.05;0.80;;;22.80;55.00;;;;;;4975553;28;20217;-71
2022/01/08 04:39:59;;;;;;;1.55;0.70;;;22.80;55.00;;;;;;4991683;28;20220;-71
2022/01/08 04:42:25;;;;;;;0.85;0.73;;;22.80;55.00;;;;;;4991695;28;20188;-72
2022/01/08 04:44:53;;;;;;;0.65;0.60;;;22.80;55.00;;;;;;4991365;28;20244;-71
2022/01/08 04:47:18;;;;;;;0.70;0.65;;;22.80;55.00;;;;;;4991557;28;20201;-71
2022/01/08 04:49:44;;;;;;;1.08;0.80;;;22.80;55.00;;;;;;4975396;28;20199;-71
2022/01/08 04:52:10;;;;;;;0.70;0.70;;;22.80;55.00;;;;;;4975466;28;20200;-72
2022/01/08 04:54:36;;;;;;;0.85;0.63;;;22.80;55.00;;;;;;4974845;28;20226;-71
2022/01/08 04:57:02;;;;;;;0.75;0.60;;;22.80;55.00;;;;;;4975129;28;20284;-71
2022/01/08 04:59:28;;;;;;;0.70;0.70;;;22.80;55.00;;;;;;4975113;28;20217;-71
2022/01/08 05:01:53;;;;;;;0.70;0.70;;;22.80;55.00;;;;;;4975142;28;20185;-71
2022/01/08 05:04:20;;;;;;;0.50;0.50;;;22.80;55.00;;;;;;4974669;28;20190;-71
2022/01/08 05:06:46;;;;;;;0.70;0.70;;;22.80;55.00;;;;;;4991307;28;20226;-71
2022/01/08 05:09:12;;;;;;;0.60;0.60;;;22.80;55.00;;;;;;4974761;28;20197;-71
2022/01/08 05:11:38;;;;;;;1.33;0.50;;;22.80;55.00;;;;;;4974868;28;20200;-71
2022/01/08 05:14:04;;;;;;;0.60;0.60;;;22.80;55.00;;;;;;4991395;28;20731;-71
2022/01/08 05:16:30;;;;;;;0.50;0.50;;;22.80;55.00;;;;;;4990728;28;20224;-71
2022/01/08 05:18:57;;;;;;;0.68;0.60;;;22.80;55.00;;;;;;4974787;28;20205;-71
2022/01/08 05:21:27;;;;;;;0.90;0.80;;;22.80;55.00;;;;;;4975087;28;20217;-71
2022/01/08 05:23:55;;;;;;;0.60;0.60;;;22.80;55.00;;;;;;4974804;28;20329;-71
2022/01/08 05:26:25;;;;;;;0.63;0.63;;;22.80;55.00;;;;;;4958103;28;20553;-70
2022/01/08 05:28:52;;;;;;;0.70;0.70;;;22.80;54.90;;;;;;4974842;28;20214;-71
2022/01/08 05:31:21;;;;;;;0.60;0.60;;;22.80;55.00;;;;;;4990849;28;20189;-70
2022/01/08 05:33:47;;;;;;;0.70;0.70;;;22.80;54.90;;;;;;4974605;28;20194;-71
2022/01/08 05:36:14;;;;;;;0.75;0.75;;;22.80;54.90;;;;;;4974122;28;20181;-71
2022/01/08 05:38:40;;;;;;;0.70;0.60;;;22.80;55.00;;;;;;4990623;28;20210;-71
2022/01/08 05:41:06;;;;;;;0.70;0.55;;;22.80;54.90;;;;;;4974441;28;20220;-71
2022/01/08 05:43:32;;;;;;;1.35;0.60;;;22.80;54.90;;;;;;4974597;28;20709;-71
2022/01/08 05:45:58;;;;;;;0.57;0.57;;;22.80;54.90;;;;;;4973154;28;20225;-71
2022/01/08 05:48:25;;;;;;;1.27;0.60;;;22.80;54.90;;;;;;4974322;28;20291;-71
2022/01/08 05:50:52;;;;;;;0.68;0.68;;;22.80;54.90;;;;;;4990783;28;20196;-71
2022/01/08 05:53:20;;;;;;;0.60;0.60;;;22.80;54.90;;;;;;4974156;28;20221;-71
2022/01/08 05:55:46;;;;;;;0.68;0.57;;;22.80;54.90;;;;;;4973937;28;20178;-71
2022/01/08 05:58:13;;;;;;;0.40;0.40;;;22.80;54.90;;;;;;4990310;28;20296;-70
2022/01/08 06:00:39;;;;;;;0.50;0.50;;;22.80;54.90;;;;;;4974064;28;20329;-71
2022/01/08 06:03:05;;;;;;;0.73;0.73;;;22.80;54.90;;;;;;4974414;28;20427;-71
2022/01/08 06:05:31;;;;;;;0.50;0.50;;;22.80;54.90;;;;;;4989900;28;20260;-71
2022/01/08 06:07:57;;;;;;;0.80;0.57;;;22.80;54.90;;;;;;4973665;28;20695;-71
2022/01/08 06:10:22;;;;;;;0.60;0.50;;;22.80;54.90;;;;;;4973864;28;20189;-70
2022/01/08 06:12:52;;;;;;;0.60;0.60;;;22.80;54.90;;;;;;4973925;28;20284;-71
2022/01/08 06:15:19;;;;;;;0.68;0.68;;;22.80;54.90;;;;;;4989715;28;20244;-70
2022/01/08 06:17:45;;;;;;;0.60;0.60;;;22.80;55.00;;;;;;4973695;28;20229;-70
2022/01/08 06:20:11;;;;;;;1.30;0.40;;;22.80;55.00;;;;;;4973653;28;20268;-70
2022/01/08 06:22:38;;;;;;;0.60;0.52;;;22.80;54.90;;;;;;4988363;28;20196;-71
2022/01/08 06:25:05;;;;;;;0.52;0.52;;;22.80;54.90;;;;;;4974445;28;20197;-70
2022/01/08 06:27:31;;;;;;;0.45;0.45;;;22.80;54.90;;;;;;4973798;28;20206;-68
2022/01/08 06:29:56;;;;;;;0.82;0.40;;;22.80;55.00;;;;;;4973631;28;20224;-70
2022/01/08 06:32:22;;;;;;;0.95;0.60;;;22.80;55.00;;;;;;4989812;28;20213;-70
2022/01/08 06:34:48;;;;;;;0.68;0.68;;;22.80;54.90;;;;;;4973103;28;20288;-70
2022/01/08 06:37:14;;;;;;;0.50;0.50;;;22.80;55.00;;;;;;4957342;28;20216;-70
2022/01/08 06:39:40;;;;;;;0.90;0.50;;;22.90;55.00;;;;;;4973543;28;20209;-69
2022/01/08 06:42:06;;;;;;;1.15;0.45;;;22.80;54.80;;;;;;4973438;28;20196;-70
2022/01/08 06:44:32;;;;;;;0.55;0.55;;;22.80;55.00;;;;;;4972967;28;20186;-69
2022/01/08 06:46:58;;;;;;;0.60;0.57;;;22.90;55.00;;;;;;4989417;28;20284;-69
2022/01/08 06:49:24;;;;;;;0.40;0.40;;;22.80;55.00;;;;;;4974347;28;20729;-70
2022/01/08 06:51:50;;;;;;;0.50;0.50;;;22.80;55.10;;;;;;4989432;28;20200;-70
2022/01/08 06:54:16;;;;;;;0.90;0.47;;;22.90;55.10;;;;;;4974113;28;20540;-69
2022/01/08 06:56:42;;;;;;;1.95;0.50;;;22.80;55.00;;;;;;4972734;28;20189;-70
2022/01/08 06:59:08;;;;;;;1.67;0.80;;;22.80;55.10;;;;;;4973089;28;20210;-70
2022/01/08 07:01:34;;;;;;;0.70;0.70;;;22.80;55.20;;;;;;4989210;28;20216;-70
2022/01/08 07:04:01;;;;;;;0.65;0.60;;;22.90;55.10;;;;;;4972573;28;20182;-70
2022/01/08 07:06:27;;;;;;;2.20;0.65;;;22.90;55.30;;;;;;4989451;28;20182;-70
2022/01/08 07:08:54;;;;;;;1.08;0.60;;;22.90;55.30;;;;;;4973177;28;20202;-70
2022/01/08 07:11:20;;;;;;;1.45;0.70;;;22.90;55.40;;;;;;4989032;28;20196;-70
2022/01/08 07:13:46;;;;;;;2.35;1.00;;;22.90;55.40;;;;;;4996753;23;20228;-71
2022/01/08 07:16:11;;;;;;;1.77;0.60;;;22.90;55.40;;;;;;4975283;28;20195;-71
2022/01/08 07:18:37;;;;;;;0.90;0.68;;;22.90;55.40;;;;;;4988759;28;20209;-71
2022/01/08 07:21:03;;;;;;;0.95;0.50;;;22.90;55.40;;;;;;4940343;28;20221;-71
2022/01/08 07:23:29;;;;;;;0.88;0.60;;;23.00;55.60;;;;;;4939750;28;20272;-71
2022/01/08 07:25:55;;;;;;;1.98;0.80;;;22.90;55.30;;;;;;4955804;28;20190;-71
2022/01/08 07:28:20;;;;;;;1.75;0.80;;;22.90;55.30;;;;;;4956137;28;20213;-71
2022/01/08 07:30:46;;;;;;;1.63;0.70;;;22.90;55.50;;;;;;4956460;28;20174;-71
2022/01/08 07:33:12;;;;;;;1.50;0.60;;;22.90;55.40;;;;;;4937830;28;20194;-71
2022/01/08 07:35:38;;;;;;;1.40;0.60;;;22.90;55.30;;;;;;4955872;28;20197;-71
2022/01/08 07:38:03;;;;;;;1.10;1.00;;;22.90;55.40;;;;;;4955949;28;20209;-71
2022/01/08 07:40:29;;;;;;;1.88;0.85;;;22.90;55.40;;;;;;4955862;28;20308;-71
2022/01/08 07:42:55;;;;;;;0.93;0.50;;;23.00;55.60;;;;;;4955929;28;20178;-71
2022/01/08 07:45:21;;;;;;;0.95;0.63;;;22.90;55.40;;;;;;4972834;28;20260;-71
2022/01/08 07:47:48;;;;;;;1.75;0.88;;;23.00;55.40;;;;;;4955771;28;20210;-70
2022/01/08 07:50:15;;;;;;;1.90;0.70;;;23.00;55.60;;;;;;4939862;28;20652;-71
2022/01/08 07:52:43;;;;;;;2.33;0.80;;;23.00;55.50;;;;;;4954933;28;20190;-71
2022/01/08 07:55:10;;;;;;;3.22;0.90;;;23.00;55.50;;;;;;4952151;28;20198;-71
2022/01/08 07:57:37;;;;;;;1.90;0.60;;;23.00;55.50;;;;;;4971699;28;20202;-71
2022/01/08 08:00:07;;;;;;;1.85;0.80;;;23.00;55.50;;;;;;4953245;28;20280;-71
2022/01/08 08:02:39;;;;;;;4.38;1.05;;;23.00;55.60;;;;;;4931913;29;20190;-71
2022/01/08 08:05:05;;;;;;;2.03;0.90;;;23.00;55.60;;;;;;4946637;28;20201;-71
2022/01/08 08:07:40;;;;;;;2.53;0.80;;;23.00;55.50;;;;;;4981280;28;20205;-71
2022/01/08 08:10:13;;;;;;;2.50;0.63;;;23.00;55.60;;;;;;4972668;28;20213;-71
2022/01/08 08:12:40;;;;;;;1.88;0.75;;;23.00;55.60;;;;;;4966051;28;20202;-71
2022/01/08 08:15:08;;;;;;;2.58;0.68;;;23.00;55.60;;;;;;4967772;28;20198;-71
2022/01/08 08:17:35;;;;;;;4.18;1.10;;;23.00;55.60;;;;;;4972736;28;20220;-71
2022/01/08 08:20:04;;;;;;;2.33;0.88;;;23.00;55.60;;;;;;4944155;29;20229;-71
2022/01/08 08:22:29;;;;;;;1.13;0.80;;;23.00;55.40;;;;;;4936212;29;20186;-71
2022/01/08 08:24:55;;;;;;;1.95;0.80;;;23.00;55.60;;;;;;4945122;28;20251;-71
2022/01/08 08:27:21;;;;;;;2.97;0.80;;;23.00;55.60;;;;;;4955238;28;20293;-71
2022/01/08 08:29:47;;;;;;;0.70;0.57;;;23.00;55.60;;;;;;4971698;28;20196;-71
2022/01/08 08:32:13;;;;;;;1.85;1.00;;;23.00;55.60;;;;;;4955495;28;20190;-71
2022/01/08 08:34:39;;;;;;;1.70;0.70;;;23.00;55.60;;;;;;4955001;28;20201;-71
2022/01/08 08:37:05;;;;;;;0.90;0.73;;;23.00;55.60;;;;;;4939207;28;20240;-71
2022/01/08 08:39:31;;;;;;;2.25;0.80;;;22.90;55.50;;;;;;4955214;28;20185;-71
2022/01/08 08:41:57;;;;;;;2.75;0.90;;;23.00;55.50;;;;;;4939263;28;20225;-71
2022/01/08 08:44:23;;;;;;;1.40;0.73;;;23.00;55.60;;;;;;4954997;28;20339;-71
2022/01/08 08:46:49;;;;;;;2.78;0.82;;;22.90;55.50;;;;;;4939340;28;20185;-71
2022/01/08 08:49:15;;;;;;;2.63;0.85;;;22.90;55.50;;;;;;4972115;28;20209;-71
2022/01/08 08:51:41;;;;;;;0.98;0.68;;;22.80;53.20;;;;;;4971364;28;20567;-71
2022/01/08 08:54:07;;;;;;;2.90;1.00;;;22.70;55.00;;;;;;4954917;28;20196;-71
2022/01/08 08:56:33;;;;;;;0.85;0.70;;;22.70;54.70;;;;;;4954705;28;20182;-71
2022/01/08 08:58:59;;;;;;;1.52;0.70;;;22.80;54.70;;;;;;4971062;28;20253;-71
2022/01/08 09:01:27;;;;;;;1.55;0.90;;;22.80;54.50;;;;;;4971221;28;20224;-71
2022/01/08 09:03:53;;;;;;;3.70;0.75;;;22.80;54.40;;;;;;4954917;28;20182;-71
2022/01/08 09:06:19;;;;;;;3.00;0.80;;;22.80;54.30;;;;;;4954505;28;20264;-71
2022/01/08 09:08:45;;;;;;;1.83;0.77;;;22.90;54.40;;;;;;4954851;28;20217;-71
2022/01/08 09:11:11;;;;;;;1.10;0.80;;;22.90;54.40;;;;;;4954851;28;20190;-71
2022/01/08 09:13:37;;;;;;;1.27;0.68;;;22.80;54.30;;;;;;4938931;28;20260;-71
2022/01/08 09:16:03;;;;;;;0.80;0.80;;;22.80;54.20;;;;;;4954541;28;20197;-71
2022/01/08 09:18:29;;;;;;;1.15;0.80;;;22.80;54.30;;;;;;4955037;28;20245;-71
2022/01/08 09:20:54;;;;;;;2.78;0.90;;;22.60;50.20;;;;;;4939522;28;20264;-71
2022/01/08 09:23:20;;;;;;;2.55;0.80;;;22.50;53.80;;;;;;4958474;28;20277;-71
2022/01/08 09:25:46;;;;;;;1.52;0.68;;;22.60;53.80;;;;;;4958073;28;20189;-71
2022/01/08 09:28:12;;;;;;;0.70;0.70;;;22.60;53.00;;;;;;4958339;28;20206;-71
2022/01/08 09:30:38;;;;;;;3.03;1.00;;;22.60;53.20;;;;;;4974608;28;20197;-71
2022/01/08 09:33:04;;;;;;;1.35;0.80;;;22.70;52.70;;;;;;4958148;28;20194;-71
2022/01/08 09:35:30;;;;;;;0.90;0.90;;;22.80;52.60;;;;;;4963699;28;20256;-71
2022/01/08 09:37:56;;;;;;;3.25;0.93;;;22.70;52.40;;;;;;4972180;28;20209;-71
2022/01/08 09:40:23;;;;;;;1.80;0.73;;;22.80;52.80;;;;;;4958125;28;20276;-71
2022/01/08 09:42:51;;;;;;;4.18;0.93;;;22.80;52.80;;;;;;4942188;28;20247;-71
2022/01/08 09:45:17;;;;;;;3.08;1.00;;;22.80;52.90;;;;;;4941676;28;20186;-72
2022/01/08 09:47:43;;;;;;;2.88;0.93;;;22.80;52.90;;;;;;4958052;28;20208;-72
2022/01/08 09:50:10;;;;;;;1.75;0.95;;;22.80;52.90;;;;;;4958041;28;20185;-72
2022/01/08 09:52:36;;;;;;;3.33;1.00;;;22.80;52.90;;;;;;4957835;28;20205;-71
2022/01/08 09:55:05;;;;;;;1.33;0.68;;;22.80;53.00;;;;;;4941808;28;20190;-71
2022/01/08 09:57:31;;;;;;;1.05;0.90;;;22.90;53.10;;;;;;4974978;28;20759;-71
2022/01/08 09:59:58;;;;;;;1.70;0.95;;;22.90;53.10;;;;;;4990183;28;20594;-71
2022/01/08 10:02:24;;;;;;;2.30;1.00;;;22.90;53.30;;;;;;4990120;28;20555;-71
2022/01/08 10:04:50;;;;;;;2.20;1.05;;;22.90;53.30;;;;;;4989684;28;20208;-71
2022/01/08 10:07:26;;;;;;;3.13;1.25;;;22.90;53.30;;;;;;4957526;28;20215;-71
2022/01/08 10:10:00;;;;;;;1.77;1.27;;;22.90;53.30;;;;;;4973459;28;20283;-71
2022/01/08 10:12:52;;;;;;;2.22;1.67;;;22.90;53.40;;;;;;4973524;28;20193;-71
2022/01/08 10:18:34;;;;;;;2.05;0.90;;;22.90;53.50;;;;;;4957648;28;20209;-71
2022/01/08 10:21:29;;;;;;;1.88;1.27;;;22.90;53.60;;;;;;4957693;28;20213;-71
2022/01/08 10:24:08;;;;;;;1.38;1.27;;;22.90;53.60;;;;;;4956982;28;20257;-71
2022/01/08 10:26:40;;;;;;;2.30;1.05;;;22.90;53.60;;;;;;4974020;28;20272;-71
2022/01/08 10:29:12;;;;;;;1.70;1.10;;;23.00;53.70;;;;;;4954264;28;20217;-71
2022/01/08 10:31:48;;;;;;;1.83;1.00;;;22.90;53.60;;;;;;4973233;28;20185;-71
2022/01/08 10:34:22;;;;;;;2.08;1.13;;;23.00;53.70;;;;;;4937577;29;20197;-71
2022/01/08 10:37:05;;;;;;;2.00;1.17;;;23.00;53.70;;;;;;4937995;29;20190;-71
2022/01/08 10:39:36;;;;;;;1.30;1.17;;;23.00;53.70;;;;;;4955973;29;20192;-71
2022/01/08 10:42:12;;;;;;;1.10;1.00;;;23.00;53.70;;;;;;4926934;28;20194;-71
2022/01/08 10:44:39;;;;;;;1.42;1.20;;;23.00;53.70;;;;;;4964522;28;20186;-71
2022/01/08 10:47:23;;;;;;;1.70;1.35;;;23.00;53.70;;;;;;4973015;28;20194;-71
2022/01/08 10:50:05;;;;;;;2.22;1.45;;;23.00;53.70;;;;;;4952451;28;20186;-71
2022/01/08 10:52:44;;;;;;;2.15;1.17;;;23.00;53.70;;;;;;4969685;28;20194;-71
2022/01/08 10:55:10;;;;;;;1.80;1.10;;;23.00;53.80;;;;;;4952930;29;20233;-71
2022/01/08 10:57:40;;;;;;;1.30;1.00;;;23.00;53.90;;;;;;4921473;28;20226;-71
2022/01/08 11:00:14;;;;;;;2.75;0.85;;;23.00;54.10;;;;;;4970714;28;20205;-71
2022/01/08 11:02:43;;;;;;;1.38;1.10;;;23.00;54.00;;;;;;4925238;28;20224;-71
2022/01/08 11:05:11;;;;;;;1.63;1.10;;;23.00;54.00;;;;;;4956151;28;20252;-71
2022/01/08 11:07:41;;;;;;;2.92;1.20;;;23.00;54.00;;;;;;4938613;29;20210;-71
2022/01/08 11:10:16;;;;;;;1.45;1.00;;;23.00;53.80;;;;;;4954768;28;20193;-71
2022/01/08 11:12:43;;;;;;;1.08;0.98;;;23.00;53.70;;;;;;4973651;28;20232;-71
2022/01/08 11:15:34;;;;;;;1.30;1.08;;;23.00;54.00;;;;;;4958429;28;20204;-71
2022/01/08 11:18:00;;;;;;;2.63;1.27;;;23.00;54.00;;;;;;4955980;28;20217;-71
2022/01/08 11:20:32;;;;;;;0.93;0.90;;;23.00;53.90;;;;;;4942992;28;20236;-71
2022/01/08 11:23:02;;;;;;;1.05;0.80;;;23.00;53.90;;;;;;4940172;28;20201;-71
2022/01/08 11:25:36;;;;;;;1.25;1.13;;;23.00;54.00;;;;;;4941251;28;20189;-71
2022/01/08 11:28:10;;;;;;;1.13;0.93;;;23.10;54.00;;;;;;4957215;28;20220;-71
2022/01/08 11:30:49;;;;;;;1.77;1.10;;;23.10;53.80;;;;;;4940234;28;20200;-71
2022/01/08 11:33:28;;;;;;;1.48;1.00;;;23.10;53.80;;;;;;4976071;28;20718;-71
2022/01/08 11:35:56;;;;;;;1.75;1.30;;;23.00;53.70;;;;;;4957696;28;20562;-71
2022/01/08 11:38:26;;;;;;;1.77;1.00;;;23.00;53.80;;;;;;4940266;28;20197;-71
2022/01/08 11:40:55;;;;;;;1.38;1.23;;;23.00;54.00;;;;;;4940010;28;20221;-71
2022/01/08 11:43:24;;;;;;;2.00;1.20;;;23.00;54.00;;;;;;4939861;28;20201;-71
2022/01/08 11:46:03;;;;;;;1.60;1.20;;;23.00;54.00;;;;;;4939232;28;20292;-71
2022/01/08 11:48:39;;;;;;;1.65;1.00;;;23.00;54.00;;;;;;4949057;28;20217;-71
2022/01/08 11:51:13;;;;;;;1.40;0.90;;;23.00;54.10;;;;;;4939626;28;20197;-73
2022/01/08 11:53:52;;;;;;;1.25;1.10;;;23.00;54.20;;;;;;4939093;28;20200;-71
2022/01/08 11:56:39;;;;;;;2.60;1.35;;;23.10;54.20;;;;;;4937275;28;20186;-70
2022/01/08 11:59:17;;;;;;;2.25;1.17;;;23.10;54.40;;;;;;4941205;28;20206;-70
2022/01/08 12:02:12;;;;;;;1.55;1.00;;;23.10;54.20;;;;;;4971716;28;20224;-70
2022/01/08 12:04:45;;;;;;;1.92;1.02;;;23.10;54.30;;;;;;4970002;28;20272;-70
2022/01/08 12:07:39;;;;;;;1.30;1.00;;;23.10;54.30;;;;;;4971615;28;20201;-70
2022/01/08 12:10:17;;;;;;;2.40;0.98;;;23.10;54.30;;;;;;4987860;28;20193;-70
2022/01/08 12:12:51;;;;;;;1.48;0.95;;;23.10;54.20;;;;;;4971676;28;20232;-70
2022/01/08 12:15:40;;;;;;;2.25;1.20;;;23.10;54.20;;;;;;4971297;28;20213;-70
2022/01/08 12:18:18;;;;;;;1.33;1.15;;;23.10;54.30;;;;;;4971605;28;20742;-70
2022/01/08 12:20:52;;;;;;;0.98;0.98;;;23.10;54.20;;;;;;4957598;28;20209;-70
2022/01/08 12:23:39;;;;;;;1.85;1.55;;;23.10;54.20;;;;;;4971016;28;20240;-70
2022/01/08 12:26:20;;;;;;;1.63;0.75;;;23.10;54.10;;;;;;4946236;28;20182;-70
2022/01/08 12:28:59;;;;;;;2.33;1.10;;;23.10;54.10;;;;;;4971135;28;20205;-70
2022/01/08 12:31:28;;;;;;;2.45;1.25;;;23.10;54.10;;;;;;4939027;28;20193;-70
2022/01/08 12:34:34;;;;;;;1.23;1.13;;;23.10;54.00;;;;;;4971159;28;20193;-70
2022/01/08 12:37:06;;;;;;;2.97;1.02;;;23.10;54.10;;;;;;4938053;28;20197;-70
2022/01/08 12:39:52;;;;;;;1.90;1.23;;;23.10;54.10;;;;;;4954903;28;20276;-70
2022/01/08 12:42:23;;;;;;;4.53;1.13;;;23.10;54.10;;;;;;4971273;28;20185;-70
2022/01/08 12:45:11;;;;;;;1.75;0.80;;;23.10;54.20;;;;;;4970608;28;20671;-70
2022/01/08 12:48:09;;;;;;;1.95;0.93;;;23.10;54.10;;;;;;4970888;28;20241;-70
2022/01/08 12:50:44;;;;;;;3.03;1.20;;;23.10;54.10;;;;;;4927951;28;20263;-70
2022/01/08 12:53:17;;;;;;;1.50;0.98;;;23.10;54.20;;;;;;4938346;28;20597;-70
2022/01/08 12:55:55;;;;;;;1.95;1.20;;;23.10;54.20;;;;;;4940678;28;20193;-70
2022/01/08 12:58:33;;;;;;;1.38;1.05;;;23.10;54.20;;;;;;4976195;28;20344;-70
2022/01/08 13:01:06;;;;;;;1.40;0.95;;;23.10;54.20;;;;;;4975058;28;20224;-70
2022/01/08 13:03:37;;;;;;;0.90;0.90;;;23.00;54.20;;;;;;4974756;28;20209;-70
2022/01/08 13:06:25;;;;;;;2.25;1.00;;;23.00;54.20;;;;;;4974489;28;20308;-70
2022/01/08 13:08:54;;;;;;;1.27;0.60;;;23.00;54.30;;;;;;4958302;28;20737;-70
2022/01/08 13:11:32;;;;;;;2.03;1.00;;;23.10;54.30;;;;;;4942656;28;20202;-70
2022/01/08 13:14:06;;;;;;;1.38;1.15;;;23.10;54.20;;;;;;5000275;23;20228;-72
2022/01/08 13:16:49;;;;;;;3.42;1.40;;;23.00;54.10;;;;;;4961857;28;20184;-72